Skip Navigation Links Skip Navigation Links

Current Weather

Eureka, Nunavut

For information only: do not use for flight planning or navigation.
Latest weather
Observation time Sunday, December 17, 2017 4:00 PM CST
Local time Sunday, December 17, 2017 5:06 PM CST
Flight conditions Visual Meteorological Conditions
Winds
Wind speed calm
Visibility 15 mi.
Present weather ice crystals
Sky condition
Ceiling unlimited
Sky clear
Temperature -33°F
Dewpoint -40°F
Altimeter 29.50 in.Hg
Derived measurements
Relative humidity 66%
Wind chill -33°F
Density altitude -6249 ft.
Sea-level pressure 29.51 in.Hg
METAR CWEU 172200Z 00000KT 15SM IC SKC M36/M40 A2950 RMK SLP994

Settings

Location code

InnerDrive.Weather 4.0.6144.1 Release CLR 4.0.30319.36366
Copyright ©2015 Inner Drive Technology. All rights reserved. Portions Copyright ©1986-2015 David Braverman.

Find weather

Site navigation


Skip Navigation Links

Place info

Page info

PayPal - The safer, easier way to pay online!

Return home.

Copyright ©2017 Inner Drive Technology. Purveyors of fine, hand-crafted computer software. Page printed 2017-12-17T23:06:00 UTC.